createdAt,value
2017-09-25T00:00:18.327Z,34.40
2017-09-25T00:02:45.823Z,34.47
2017-09-25T00:05:13.336Z,34.67
2017-09-25T00:07:40.839Z,35.77
2017-09-25T00:10:08.346Z,36.50
2017-09-25T00:12:35.859Z,42.77
2017-09-25T00:15:03.363Z,38.60
2017-09-25T00:17:30.879Z,40.03
2017-09-25T00:19:58.383Z,40.60
2017-09-25T00:22:25.900Z,43.43
2017-09-25T00:24:53.403Z,40.70
2017-09-25T00:27:20.931Z,46.03
2017-09-25T00:29:49.219Z,41.07
2017-09-25T00:32:16.752Z,38.40
2017-09-25T00:34:44.256Z,39.27
2017-09-25T00:37:11.778Z,37.70
2017-09-25T00:39:40.046Z,33.07
2017-09-25T00:42:07.579Z,31.90
2017-09-25T00:44:35.084Z,38.23
2017-09-25T00:47:02.612Z,33.97
2017-09-25T00:49:30.111Z,28.50
2017-09-25T00:51:57.631Z,29.30
2017-09-25T00:54:25.143Z,28.77
2017-09-25T00:56:52.659Z,29.63
2017-09-25T00:59:28.695Z,25.83
2017-09-25T01:02:08.016Z,23.83
2017-09-25T01:04:47.383Z,20.83
2017-09-25T01:07:15.676Z,22.30
2017-09-25T01:09:43.967Z,29.27
2017-09-25T01:12:11.499Z,26.60
2017-09-25T01:14:39.776Z,22.93
2017-09-25T01:17:08.051Z,22.70
2017-09-25T01:19:36.343Z,21.33
2017-09-25T01:22:03.857Z,22.43
2017-09-25T01:24:31.376Z,20.73
2017-09-25T01:26:58.879Z,18.57
2017-09-25T01:29:26.400Z,18.73
2017-09-25T01:31:54.748Z,22.10
2017-09-25T01:34:23.031Z,21.77
2017-09-25T01:36:50.542Z,22.00
2017-09-25T01:39:18.064Z,19.20
2017-09-25T01:41:45.570Z,22.63
2017-09-25T01:44:13.103Z,19.67
2017-09-25T01:46:40.610Z,19.63
2017-09-25T01:49:08.895Z,19.33
2017-09-25T01:51:36.782Z,17.07
2017-09-25T01:54:04.300Z,18.77
2017-09-25T01:56:32.566Z,16.33
2017-09-25T01:59:00.100Z,17.83
2017-09-25T02:01:29.242Z,21.13
2017-09-25T02:03:57.558Z,21.60
2017-09-25T02:06:25.067Z,20.50
2017-09-25T02:08:53.359Z,20.27
2017-09-25T02:11:21.624Z,19.33
2017-09-25T02:13:49.899Z,16.63
2017-09-25T02:16:18.186Z,19.60
2017-09-25T02:18:46.450Z,17.67
2017-09-25T02:21:14.740Z,19.57
2017-09-25T02:23:43.007Z,20.90
2017-09-25T02:26:11.299Z,17.63
2017-09-25T02:28:38.809Z,16.30
2017-09-25T02:31:06.330Z,16.23
2017-09-25T02:33:33.826Z,16.13
2017-09-25T02:36:01.343Z,14.73
2017-09-25T02:38:28.843Z,15.60
2017-09-25T02:40:56.368Z,17.00
2017-09-25T02:43:23.875Z,16.70
2017-09-25T02:45:51.392Z,15.27
2017-09-25T02:48:18.899Z,14.83
2017-09-25T02:50:47.183Z,16.83
2017-09-25T02:53:15.452Z,14.33
2017-09-25T02:55:43.731Z,16.90
2017-09-25T02:58:11.999Z,15.97
2017-09-25T03:00:40.288Z,15.30
2017-09-25T03:03:08.555Z,17.67
2017-09-25T03:05:36.840Z,16.63
2017-09-25T03:08:05.111Z,17.80
2017-09-25T03:10:33.411Z,13.93
2017-09-25T03:13:00.921Z,15.33
2017-09-25T03:15:28.423Z,14.37
2017-09-25T03:17:55.939Z,13.47
2017-09-25T03:20:23.439Z,15.40
2017-09-25T03:22:50.956Z,19.23
2017-09-25T03:25:18.451Z,14.37
2017-09-25T03:27:45.980Z,14.27
2017-09-25T03:30:14.973Z,16.40
2017-09-25T03:32:43.273Z,18.27
2017-09-25T03:35:10.784Z,15.20
2017-09-25T03:37:38.303Z,18.70
2017-09-25T03:40:05.807Z,13.67
2017-09-25T03:42:33.339Z,15.40
2017-09-25T03:45:00.842Z,18.53
2017-09-25T03:47:28.366Z,17.20
2017-09-25T03:49:55.863Z,19.93
2017-09-25T03:52:24.146Z,18.00
2017-09-25T03:54:52.411Z,17.33
2017-09-25T03:57:19.923Z,15.90
2017-09-25T03:59:47.422Z,16.53
2017-09-25T04:02:14.944Z,15.67
2017-09-25T04:04:42.454Z,15.83
2017-09-25T04:07:10.736Z,17.37
2017-09-25T04:09:39.011Z,18.37
2017-09-25T04:12:07.307Z,14.70
2017-09-25T04:14:34.812Z,19.07
2017-09-25T04:17:02.319Z,15.80
2017-09-25T04:19:29.834Z,16.07
2017-09-25T04:21:57.335Z,17.37
2017-09-25T04:24:24.861Z,14.50
2017-09-25T04:26:53.131Z,15.20
2017-09-25T04:29:20.650Z,13.40
2017-09-25T04:31:48.147Z,16.60
2017-09-25T04:34:15.696Z,16.67
2017-09-25T04:36:43.210Z,15.23
2017-09-25T04:39:10.747Z,18.27
2017-09-25T04:41:39.011Z,15.13
2017-09-25T04:44:07.294Z,14.10
2017-09-25T04:46:35.563Z,18.60
2017-09-25T04:49:03.847Z,19.07
2017-09-25T04:51:32.115Z,17.50
2017-09-25T04:54:00.403Z,15.50
2017-09-25T04:56:28.676Z,14.67
2017-09-25T04:58:56.959Z,13.93
2017-09-25T05:01:25.219Z,16.87
2017-09-25T05:03:53.503Z,19.67
2017-09-25T05:06:21.772Z,16.40
2017-09-25T05:08:50.060Z,18.90
2017-09-25T05:11:17.575Z,17.70
2017-09-25T05:13:45.108Z,16.57
2017-09-25T05:16:12.615Z,17.97
2017-09-25T05:18:40.894Z,19.20
2017-09-25T05:21:09.179Z,19.47
2017-09-25T05:23:37.455Z,23.80
2017-09-25T05:26:05.747Z,16.43
2017-09-25T05:28:33.258Z,18.23
2017-09-25T05:31:00.776Z,15.70
2017-09-25T05:33:28.275Z,21.80
2017-09-25T05:35:55.803Z,21.10
2017-09-25T05:38:23.303Z,32.60
2017-09-25T05:40:50.823Z,22.37
2017-09-25T05:43:18.327Z,19.40
2017-09-25T05:45:46.619Z,18.50
2017-09-25T05:48:14.879Z,18.90
2017-09-25T05:50:43.167Z,18.90
2017-09-25T05:53:11.439Z,19.87
2017-09-25T05:55:39.715Z,15.47
2017-09-25T05:58:07.975Z,16.17
2017-09-25T06:00:35.491Z,18.50
2017-09-25T06:03:02.992Z,15.07
2017-09-25T06:05:30.521Z,16.20
2017-09-25T06:07:58.028Z,17.50
2017-09-25T06:10:26.316Z,15.00
2017-09-25T06:12:53.829Z,13.10
2017-09-25T06:15:21.337Z,17.00
2017-09-25T06:17:48.851Z,13.83
2017-09-25T06:20:16.355Z,14.63
2017-09-25T06:22:43.875Z,12.83
2017-09-25T06:25:11.377Z,10.90
2017-09-25T06:27:38.892Z,9.23
2017-09-25T06:30:06.387Z,9.80
2017-09-25T06:32:33.899Z,9.33
2017-09-25T06:35:01.398Z,8.90
2017-09-25T06:37:28.922Z,13.83
2017-09-25T06:39:56.424Z,11.47
2017-09-25T06:42:23.940Z,12.67
2017-09-25T06:44:51.440Z,13.70
2017-09-25T06:47:18.956Z,15.90
2017-09-25T06:49:46.460Z,10.27
2017-09-25T06:52:13.975Z,9.10
2017-09-25T06:54:42.240Z,11.17
2017-09-25T06:57:09.751Z,7.50
2017-09-25T06:59:37.248Z,7.03
2017-09-25T07:02:04.763Z,8.57
2017-09-25T07:04:32.263Z,10.50
2017-09-25T07:06:59.784Z,10.40
2017-09-25T07:09:27.292Z,10.67
2017-09-25T07:11:54.811Z,14.37
2017-09-25T07:14:22.390Z,14.30
2017-09-25T07:16:49.934Z,11.07
2017-09-25T07:19:18.439Z,10.97
2017-09-25T07:21:47.112Z,13.00
2017-09-25T07:24:14.667Z,13.87
2017-09-25T07:26:42.172Z,14.47
2017-09-25T07:29:10.468Z,13.57
2017-09-25T07:31:37.972Z,12.90
2017-09-25T07:34:05.496Z,13.47
2017-09-25T07:36:32.995Z,8.40
2017-09-25T07:39:00.519Z,10.43
2017-09-25T07:41:28.015Z,8.80
2017-09-25T07:43:55.935Z,9.20
2017-09-25T07:46:23.447Z,10.10
2017-09-25T07:48:50.963Z,9.70
2017-09-25T07:51:18.467Z,10.07
2017-09-25T07:53:46.755Z,10.30
2017-09-25T07:56:15.037Z,10.73
2017-09-25T07:58:43.327Z,12.37
2017-09-25T08:01:10.833Z,15.17
2017-09-25T08:03:38.368Z,15.07
2017-09-25T08:06:05.867Z,13.80
2017-09-25T08:08:33.391Z,15.60
2017-09-25T08:11:00.896Z,15.80
2017-09-25T08:13:29.176Z,15.33
2017-09-25T08:15:57.463Z,11.83
2017-09-25T08:18:24.971Z,12.67
2017-09-25T08:20:52.492Z,14.63
2017-09-25T08:23:19.999Z,20.53
2017-09-25T08:25:47.921Z,16.20
2017-09-25T08:28:15.436Z,15.70
2017-09-25T08:30:43.727Z,12.73
2017-09-25T08:33:11.996Z,17.00
2017-09-25T08:35:40.287Z,18.00
2017-09-25T08:38:07.795Z,15.30
2017-09-25T08:40:35.323Z,13.97
2017-09-25T08:43:02.847Z,11.17
2017-09-25T08:45:31.171Z,15.70
2017-09-25T08:47:58.747Z,15.53
2017-09-25T08:50:26.389Z,19.50
2017-09-25T08:52:53.992Z,16.37
2017-09-25T08:55:22.294Z,19.07
2017-09-25T08:57:50.718Z,17.47
2017-09-25T09:00:18.255Z,19.63
2017-09-25T09:02:45.764Z,18.03
2017-09-25T09:05:13.290Z,19.87
2017-09-25T09:07:40.803Z,18.97
2017-09-25T09:10:09.108Z,24.23
2017-09-25T09:12:36.615Z,22.37
2017-09-25T09:15:04.127Z,25.80
2017-09-25T09:17:31.647Z,22.60
2017-09-25T09:19:59.925Z,22.83
2017-09-25T09:22:28.215Z,22.50
2017-09-25T09:24:55.731Z,25.87
2017-09-25T09:27:23.260Z,22.70
2017-09-25T09:29:50.772Z,24.80
2017-09-25T09:32:19.063Z,27.10
2017-09-25T09:34:46.571Z,22.37
2017-09-25T09:37:14.099Z,23.83
2017-09-25T09:39:41.611Z,22.07
2017-09-25T09:42:09.139Z,22.77
2017-09-25T09:44:37.408Z,21.60
2017-09-25T09:47:04.935Z,24.87
2017-09-25T09:49:32.443Z,19.20
2017-09-25T09:51:59.965Z,21.57
2017-09-25T09:54:27.471Z,23.97
2017-09-25T09:56:55.000Z,21.43
2017-09-25T09:59:22.509Z,26.10
2017-09-25T10:01:50.849Z,20.13
2017-09-25T10:04:18.440Z,22.30
2017-09-25T10:06:46.886Z,23.43
2017-09-25T10:09:14.639Z,20.50
2017-09-25T10:11:43.158Z,21.27
2017-09-25T10:14:10.724Z,22.90
2017-09-25T10:16:39.020Z,20.03
2017-09-25T10:19:06.568Z,20.47
2017-09-25T10:21:34.852Z,20.83
2017-09-25T10:24:03.140Z,22.27
2017-09-25T10:26:30.652Z,19.77
2017-09-25T10:28:58.179Z,20.23
2017-09-25T10:31:25.678Z,16.50
2017-09-25T10:33:53.204Z,19.00
2017-09-25T10:36:22.146Z,15.67
2017-09-25T10:38:50.436Z,15.63
2017-09-25T10:41:17.948Z,15.90
2017-09-25T10:43:45.467Z,17.17
2017-09-25T10:46:12.974Z,13.97
2017-09-25T10:48:40.502Z,15.87
2017-09-25T10:51:08.003Z,14.40
2017-09-25T10:53:36.300Z,20.07
2017-09-25T10:56:03.836Z,17.40
2017-09-25T10:58:31.438Z,16.30
2017-09-25T11:00:58.947Z,20.60
2017-09-25T11:03:26.472Z,14.77
2017-09-25T11:05:53.980Z,15.87
2017-09-25T11:08:22.271Z,15.53
2017-09-25T11:10:49.784Z,13.80
2017-09-25T11:13:17.291Z,16.90
2017-09-25T11:15:44.816Z,16.30
2017-09-25T11:18:13.095Z,18.00
2017-09-25T11:20:41.391Z,18.50
2017-09-25T11:23:09.663Z,13.37
2017-09-25T11:25:37.953Z,14.70
2017-09-25T11:28:05.458Z,15.90
2017-09-25T11:30:32.984Z,17.60
2017-09-25T11:33:00.527Z,13.83
2017-09-25T11:35:29.089Z,15.33
2017-09-25T11:37:57.391Z,13.87
2017-09-25T11:40:24.931Z,12.83
2017-09-25T11:42:53.206Z,12.60
2017-09-25T11:45:21.488Z,11.77
2017-09-25T11:47:49.759Z,11.10
2017-09-25T11:50:18.047Z,17.70
2017-09-25T11:52:45.559Z,14.50
2017-09-25T11:55:13.074Z,11.43
2017-09-25T11:57:40.575Z,15.63
2017-09-25T12:00:08.098Z,10.33
2017-09-25T12:02:35.600Z,11.30
2017-09-25T12:05:03.127Z,11.40
2017-09-25T12:07:30.633Z,11.57
2017-09-25T12:09:58.945Z,13.77
2017-09-25T12:12:26.459Z,14.00
2017-09-25T12:14:53.960Z,11.03
2017-09-25T12:17:21.479Z,13.10
2017-09-25T12:19:48.994Z,11.47
2017-09-25T12:22:16.537Z,11.60
2017-09-25T12:24:44.039Z,12.00
2017-09-25T12:27:11.556Z,9.57
2017-09-25T12:29:39.055Z,10.30
2017-09-25T12:32:06.571Z,9.67
2017-09-25T12:34:34.088Z,9.53
2017-09-25T12:37:02.391Z,13.40
2017-09-25T12:39:29.899Z,12.10
2017-09-25T12:41:57.429Z,10.90
2017-09-25T12:44:24.966Z,13.00
2017-09-25T12:46:54.611Z,11.80
2017-09-25T12:49:22.139Z,14.10
2017-09-25T12:51:49.668Z,11.70
2017-09-25T12:54:17.953Z,13.07
2017-09-25T12:56:46.239Z,13.13
2017-09-25T12:59:13.744Z,12.80
2017-09-25T13:01:41.264Z,15.93
2017-09-25T13:04:08.777Z,13.80
2017-09-25T13:06:36.300Z,11.13
2017-09-25T13:09:03.806Z,11.90
2017-09-25T13:11:31.387Z,13.37
2017-09-25T13:13:59.664Z,11.90
2017-09-25T13:16:27.181Z,13.57
2017-09-25T13:18:54.708Z,15.03
2017-09-25T13:21:22.215Z,14.07
2017-09-25T13:23:49.735Z,12.87
2017-09-25T13:26:17.244Z,14.43
2017-09-25T13:28:44.775Z,12.73
2017-09-25T13:31:12.280Z,16.20
2017-09-25T13:33:40.104Z,13.57
2017-09-25T13:36:07.617Z,13.13
2017-09-25T13:38:35.140Z,11.60
2017-09-25T13:41:03.416Z,17.20
2017-09-25T13:43:31.708Z,12.93
2017-09-25T13:45:59.215Z,13.50
2017-09-25T13:48:26.741Z,15.77
2017-09-25T13:50:54.247Z,19.00
2017-09-25T13:53:21.775Z,15.07
2017-09-25T13:55:49.287Z,19.67
2017-09-25T13:58:17.581Z,17.17
2017-09-25T14:03:18.116Z,16.33
2017-09-25T14:05:45.670Z,17.97
2017-09-25T14:08:14.031Z,14.70
2017-09-25T14:10:41.593Z,18.50
2017-09-25T14:13:09.929Z,16.83
2017-09-25T14:15:37.568Z,15.47
2017-09-25T14:18:05.143Z,15.23
2017-09-25T14:20:32.895Z,17.20
2017-09-25T14:23:00.492Z,13.03
2017-09-25T14:25:28.067Z,11.70
2017-09-25T14:27:55.627Z,12.67
2017-09-25T14:30:23.218Z,14.97
2017-09-25T14:32:50.779Z,14.10
2017-09-25T14:35:18.360Z,15.50
2017-09-25T14:37:45.928Z,16.37
2017-09-25T14:40:13.506Z,15.80
2017-09-25T14:42:41.067Z,19.87
2017-09-25T14:45:08.643Z,12.80
2017-09-25T14:47:36.203Z,12.13
2017-09-25T14:50:03.780Z,14.57
2017-09-25T14:52:32.108Z,15.07
2017-09-25T14:54:59.683Z,17.10
2017-09-25T14:57:27.616Z,15.70
2017-09-25T14:59:55.196Z,15.70
2017-09-25T15:02:22.755Z,16.27
2017-09-25T15:04:50.358Z,17.77
2017-09-25T15:07:18.684Z,15.77
2017-09-25T15:09:46.243Z,15.37
2017-09-25T15:12:13.819Z,14.47
2017-09-25T15:14:41.386Z,15.97
2017-09-25T15:17:08.972Z,15.80
2017-09-25T15:19:37.294Z,14.10
2017-09-25T15:22:04.871Z,17.93
2017-09-25T15:24:32.430Z,13.30
2017-09-25T15:27:00.012Z,14.43
2017-09-25T15:29:33.244Z,13.90
2017-09-25T15:32:00.937Z,17.70
2017-09-25T15:34:28.507Z,14.53
2017-09-25T15:36:56.089Z,17.10
2017-09-25T15:39:23.655Z,19.50
2017-09-25T15:41:51.239Z,17.80
2017-09-25T15:44:18.803Z,19.73
2017-09-25T15:46:46.385Z,19.70
2017-09-25T15:49:14.251Z,19.33
2017-09-25T15:51:41.832Z,22.20
2017-09-25T15:54:09.390Z,25.17
2017-09-25T15:56:37.735Z,27.23
2017-09-25T15:59:05.298Z,29.80
2017-09-25T16:01:32.880Z,31.80
2017-09-25T16:04:00.439Z,35.00
2017-09-25T16:06:28.026Z,31.03
2017-09-25T16:08:55.587Z,30.43
2017-09-25T16:11:23.154Z,32.30
2017-09-25T16:13:51.495Z,37.43
2017-09-25T16:16:19.060Z,30.70
2017-09-25T16:18:46.635Z,26.87
2017-09-25T16:21:14.209Z,32.47
2017-09-25T16:23:42.558Z,28.20
2017-09-25T16:26:10.124Z,25.57
2017-09-25T16:28:37.702Z,29.80
2017-09-25T16:31:05.267Z,32.57
2017-09-25T16:33:33.616Z,28.83
2017-09-25T16:36:01.179Z,33.37
2017-09-25T16:38:28.759Z,33.27
2017-09-25T16:40:57.095Z,38.10
2017-09-25T16:43:24.675Z,38.13
2017-09-25T16:45:52.247Z,32.10
2017-09-25T16:48:19.822Z,34.90
2017-09-25T16:50:48.155Z,39.30
2017-09-25T16:53:15.733Z,39.20
2017-09-25T16:55:43.335Z,38.40
2017-09-25T16:58:10.983Z,35.53
2017-09-25T17:00:39.347Z,38.60
2017-09-25T17:03:06.953Z,41.87
2017-09-25T17:05:34.529Z,38.57
2017-09-25T17:08:02.091Z,38.10
2017-09-25T17:10:29.667Z,37.20
2017-09-25T17:12:57.232Z,37.77
2017-09-25T17:15:24.810Z,32.40
2017-09-25T17:17:52.371Z,35.27
2017-09-25T17:20:19.946Z,39.93
2017-09-25T17:22:48.271Z,36.27
2017-09-25T17:25:15.852Z,39.80
2017-09-25T17:27:43.420Z,39.87
2017-09-25T17:30:10.994Z,36.10
2017-09-25T17:32:39.326Z,36.97
2017-09-25T17:35:06.903Z,39.23
2017-09-25T17:37:34.458Z,39.63
2017-09-25T17:40:02.042Z,34.40
2017-09-25T17:42:30.376Z,36.10
2017-09-25T17:44:57.950Z,31.30
2017-09-25T17:47:25.515Z,33.20
2017-09-25T17:49:53.095Z,34.90
2017-09-25T17:52:20.648Z,37.07
2017-09-25T17:54:48.228Z,36.63
2017-09-25T17:57:16.815Z,31.90
2017-09-25T17:59:45.230Z,36.17
2017-09-25T18:02:12.789Z,34.77
2017-09-25T18:04:40.368Z,37.67
2017-09-25T18:07:08.094Z,35.77
2017-09-25T18:09:35.662Z,33.13
2017-09-25T18:12:03.300Z,36.80
2017-09-25T18:14:30.877Z,33.50
2017-09-25T18:16:58.460Z,33.37
2017-09-25T18:19:26.320Z,34.40
2017-09-25T18:21:53.900Z,37.20
2017-09-25T18:24:21.459Z,35.10
2017-09-25T18:26:49.038Z,34.33
2017-09-25T18:29:16.606Z,33.13
2017-09-25T18:31:44.957Z,34.80
2017-09-25T18:34:12.510Z,28.70
2017-09-25T18:36:40.089Z,30.97
2017-09-25T18:39:07.651Z,37.50
2017-09-25T18:41:35.232Z,39.07
2017-09-25T18:44:03.559Z,32.23
2017-09-25T18:46:31.134Z,33.40
2017-09-25T18:48:58.695Z,35.63
2017-09-25T18:51:26.275Z,36.10
2017-09-25T18:53:54.607Z,39.60
2017-09-25T18:56:22.182Z,46.10
2017-09-25T18:58:49.745Z,42.27
2017-09-25T19:01:17.306Z,40.47
2017-09-25T19:03:44.889Z,37.97
2017-09-25T19:06:12.459Z,43.03
2017-09-25T19:08:40.802Z,36.27
2017-09-25T19:11:08.363Z,39.90
2017-09-25T19:13:35.940Z,36.17
2017-09-25T19:16:03.502Z,36.33
2017-09-25T19:18:31.078Z,40.70
2017-09-25T19:20:59.403Z,44.83
2017-09-25T19:23:27.742Z,30.37
2017-09-25T19:25:55.304Z,35.23
2017-09-25T19:28:22.883Z,35.20
2017-09-25T19:30:50.447Z,34.67
2017-09-25T19:33:18.024Z,42.07
2017-09-25T19:35:45.586Z,39.10
2017-09-25T19:38:13.162Z,40.90
2017-09-25T19:40:40.772Z,42.80
2017-09-25T19:43:08.351Z,41.23
2017-09-25T19:45:35.909Z,41.33
2017-09-25T19:48:10.097Z,42.17
2017-09-25T19:50:41.270Z,38.53
2017-09-25T19:53:08.831Z,38.87
2017-09-25T19:55:37.228Z,41.27
2017-09-25T19:58:09.247Z,36.93
2017-09-25T20:00:36.836Z,41.20
2017-09-25T20:03:04.395Z,41.27
2017-09-25T20:05:31.971Z,42.30
2017-09-25T20:07:59.537Z,47.20
2017-09-25T20:10:37.935Z,53.23
2017-09-25T20:13:05.500Z,44.07
2017-09-25T20:15:52.911Z,47.60
2017-09-25T20:18:21.370Z,49.13
2017-09-25T20:20:48.975Z,53.47
2017-09-25T20:23:16.538Z,42.57
2017-09-25T20:25:44.164Z,50.10
2017-09-25T20:30:45.639Z,49.67
2017-09-25T20:33:13.204Z,44.70
2017-09-25T20:35:40.774Z,38.07
2017-09-25T20:38:14.355Z,53.30
2017-09-25T20:40:55.157Z,52.77
2017-09-25T20:43:25.302Z,48.90
2017-09-25T20:45:52.899Z,45.60
2017-09-25T20:48:20.464Z,60.07
2017-09-25T20:50:48.042Z,58.27
2017-09-25T20:53:15.613Z,57.60
2017-09-25T20:55:43.187Z,55.67
2017-09-25T20:58:11.511Z,53.87
2017-09-25T21:00:39.089Z,68.07
2017-09-25T21:03:06.639Z,53.27
2017-09-25T21:05:34.198Z,53.07
2017-09-25T21:08:01.776Z,53.90
2017-09-25T21:10:29.339Z,53.93
2017-09-25T21:12:57.685Z,54.87
2017-09-25T21:15:25.244Z,67.97
2017-09-25T21:17:52.817Z,53.87
2017-09-25T21:20:20.447Z,51.70
2017-09-25T21:22:48.043Z,58.70
2017-09-25T21:25:15.608Z,58.70
2017-09-25T21:27:43.678Z,57.17
2017-09-25T21:30:11.239Z,60.80
2017-09-25T21:32:38.807Z,70.20
2017-09-25T21:35:06.362Z,64.50
2017-09-25T21:37:33.938Z,59.57
2017-09-25T21:40:01.499Z,58.97
2017-09-25T21:42:29.070Z,66.73
2017-09-25T21:44:57.391Z,67.70
2017-09-25T21:47:24.967Z,63.53
2017-09-25T21:49:52.528Z,73.50
2017-09-25T21:52:20.868Z,68.20
2017-09-25T21:54:48.423Z,71.83
2017-09-25T21:57:16.036Z,69.07
2017-09-25T21:59:43.677Z,58.33
2017-09-25T22:02:11.726Z,64.00
2017-09-25T22:04:39.309Z,72.40
2017-09-25T22:07:08.720Z,74.77
2017-09-25T22:09:36.343Z,78.50
2017-09-25T22:12:03.935Z,73.93
2017-09-25T22:14:32.600Z,64.73
2017-09-25T22:17:00.993Z,65.07
2017-09-25T22:19:28.571Z,66.07
2017-09-25T22:21:56.922Z,68.43
2017-09-25T22:24:24.500Z,67.03
2017-09-25T22:26:52.826Z,67.30
2017-09-25T22:29:21.160Z,59.07
2017-09-25T22:31:48.719Z,69.10
2017-09-25T22:34:16.295Z,63.13
2017-09-25T22:36:43.855Z,61.13
2017-09-25T22:39:11.435Z,67.23
2017-09-25T22:41:39.759Z,68.17
2017-09-25T22:44:08.284Z,62.37
2017-09-25T22:46:36.610Z,60.50
2017-09-25T22:49:04.199Z,66.87
2017-09-25T22:51:31.750Z,60.13
2017-09-25T22:53:59.308Z,63.93
2017-09-25T22:56:26.898Z,68.13
2017-09-25T22:58:55.223Z,76.17
2017-09-25T23:01:22.801Z,66.67
2017-09-25T23:04:05.239Z,79.53
2017-09-25T23:06:32.811Z,80.23
2017-09-25T23:09:01.135Z,80.23
2017-09-25T23:11:38.625Z,68.30
2017-09-25T23:14:06.183Z,66.30
2017-09-25T23:16:33.754Z,61.20
2017-09-25T23:19:01.311Z,65.63
2017-09-25T23:21:28.891Z,67.10
2017-09-25T23:23:56.453Z,59.10
2017-09-25T23:26:24.068Z,72.50
2017-09-25T23:28:51.733Z,77.33
2017-09-25T23:31:29.326Z,73.50
2017-09-25T23:33:56.921Z,80.30
2017-09-25T23:36:24.508Z,90.90
2017-09-25T23:38:53.178Z,86.97
2017-09-25T23:41:21.152Z,94.37
2017-09-25T23:43:48.708Z,103.00
2017-09-25T23:46:16.267Z,95.10
2017-09-25T23:48:43.838Z,90.13
2017-09-25T23:51:12.165Z,94.53
2017-09-25T23:53:39.737Z,90.20
2017-09-25T23:56:07.288Z,86.70
2017-09-25T23:58:34.856Z,75.43
